sensor_id;sensor_type;location;lat;lon;timestamp;P1;durP1;ratioP1;P2;durP2;ratioP2
48534;SDS011;34323;52.022;5.686;2023-04-24T00:01:27;5.68;;;3.72;;
48534;SDS011;34323;52.022;5.686;2023-04-24T00:03:54;6.40;;;4.32;;
48534;SDS011;34323;52.022;5.686;2023-04-24T00:06:21;5.75;;;4.25;;
48534;SDS011;34323;52.022;5.686;2023-04-24T00:08:48;8.85;;;4.22;;
48534;SDS011;34323;52.022;5.686;2023-04-24T00:11:14;7.35;;;4.20;;
48534;SDS011;34323;52.022;5.686;2023-04-24T00:13:39;6.47;;;4.55;;
48534;SDS011;34323;52.022;5.686;2023-04-24T00:16:05;6.60;;;4.85;;
48534;SDS011;34323;52.022;5.686;2023-04-24T00:18:31;8.93;;;4.07;;
48534;SDS011;34323;52.022;5.686;2023-04-24T00:20:56;4.82;;;3.60;;
48534;SDS011;34323;52.022;5.686;2023-04-24T00:23:22;5.30;;;4.00;;
48534;SDS011;34323;52.022;5.686;2023-04-24T00:25:47;6.18;;;4.10;;
48534;SDS011;34323;52.022;5.686;2023-04-24T00:28:13;3.90;;;3.22;;
48534;SDS011;34323;52.022;5.686;2023-04-24T00:30:38;6.30;;;3.42;;
48534;SDS011;34323;52.022;5.686;2023-04-24T00:33:05;6.28;;;3.92;;
48534;SDS011;34323;52.022;5.686;2023-04-24T00:35:30;4.00;;;3.10;;
48534;SDS011;34323;52.022;5.686;2023-04-24T00:37:56;4.18;;;3.55;;
48534;SDS011;34323;52.022;5.686;2023-04-24T00:40:21;4.70;;;3.00;;
48534;SDS011;34323;52.022;5.686;2023-04-24T00:42:47;7.82;;;3.17;;
48534;SDS011;34323;52.022;5.686;2023-04-24T00:45:13;7.63;;;3.47;;
48534;SDS011;34323;52.022;5.686;2023-04-24T00:47:39;4.18;;;3.15;;
48534;SDS011;34323;52.022;5.686;2023-04-24T00:50:06;3.50;;;2.97;;
48534;SDS011;34323;52.022;5.686;2023-04-24T00:52:32;4.43;;;2.38;;
48534;SDS011;34323;52.022;5.686;2023-04-24T00:54:58;4.43;;;2.10;;
48534;SDS011;34323;52.022;5.686;2023-04-24T00:57:24;5.22;;;2.55;;
48534;SDS011;34323;52.022;5.686;2023-04-24T00:59:50;3.55;;;2.25;;
48534;SDS011;34323;52.022;5.686;2023-04-24T01:02:17;3.45;;;2.78;;
48534;SDS011;34323;52.022;5.686;2023-04-24T01:04:44;4.72;;;3.40;;
48534;SDS011;34323;52.022;5.686;2023-04-24T01:07:09;3.97;;;3.35;;
48534;SDS011;34323;52.022;5.686;2023-04-24T01:09:42;4.18;;;3.33;;
48534;SDS011;34323;52.022;5.686;2023-04-24T01:12:12;1.92;;;1.60;;
48534;SDS011;34323;52.022;5.686;2023-04-24T01:14:37;1.92;;;1.40;;
48534;SDS011;34323;52.022;5.686;2023-04-24T01:17:03;3.75;;;1.30;;
48534;SDS011;34323;52.022;5.686;2023-04-24T01:19:29;0.77;;;0.70;;
48534;SDS011;34323;52.022;5.686;2023-04-24T01:21:54;0.68;;;0.68;;
48534;SDS011;34323;52.022;5.686;2023-04-24T01:24:23;1.13;;;0.70;;
48534;SDS011;34323;52.022;5.686;2023-04-24T01:26:49;1.10;;;1.00;;
48534;SDS011;34323;52.022;5.686;2023-04-24T01:29:15;1.25;;;1.00;;
48534;SDS011;34323;52.022;5.686;2023-04-24T01:31:40;1.38;;;1.00;;
48534;SDS011;34323;52.022;5.686;2023-04-24T01:34:06;1.30;;;1.00;;
48534;SDS011;34323;52.022;5.686;2023-04-24T01:36:33;1.83;;;1.30;;
48534;SDS011;34323;52.022;5.686;2023-04-24T01:39:00;3.33;;;1.70;;
48534;SDS011;34323;52.022;5.686;2023-04-24T01:41:25;2.20;;;1.60;;
48534;SDS011;34323;52.022;5.686;2023-04-24T01:43:51;2.65;;;1.70;;
48534;SDS011;34323;52.022;5.686;2023-04-24T01:46:17;3.05;;;1.70;;
48534;SDS011;34323;52.022;5.686;2023-04-24T01:48:44;2.17;;;1.70;;
48534;SDS011;34323;52.022;5.686;2023-04-24T01:51:10;2.22;;;1.63;;
48534;SDS011;34323;52.022;5.686;2023-04-24T01:53:36;1.85;;;1.17;;
48534;SDS011;34323;52.022;5.686;2023-04-24T01:56:01;1.88;;;1.45;;
48534;SDS011;34323;52.022;5.686;2023-04-24T01:58:27;1.73;;;1.30;;
48534;SDS011;34323;52.022;5.686;2023-04-24T02:00:55;1.50;;;1.08;;
48534;SDS011;34323;52.022;5.686;2023-04-24T02:03:21;2.72;;;1.40;;
48534;SDS011;34323;52.022;5.686;2023-04-24T02:05:47;2.22;;;1.63;;
48534;SDS011;34323;52.022;5.686;2023-04-24T02:08:12;4.10;;;2.53;;
48534;SDS011;34323;52.022;5.686;2023-04-24T02:10:38;3.80;;;2.90;;
48534;SDS011;34323;52.022;5.686;2023-04-24T02:13:03;5.32;;;3.28;;
48534;SDS011;34323;52.022;5.686;2023-04-24T02:15:29;5.53;;;3.63;;
48534;SDS011;34323;52.022;5.686;2023-04-24T02:17:55;5.57;;;4.10;;
48534;SDS011;34323;52.022;5.686;2023-04-24T02:20:20;6.45;;;4.20;;
48534;SDS011;34323;52.022;5.686;2023-04-24T02:22:46;5.95;;;3.72;;
48534;SDS011;34323;52.022;5.686;2023-04-24T02:25:12;6.65;;;4.20;;
48534;SDS011;34323;52.022;5.686;2023-04-24T02:27:37;6.05;;;4.63;;
48534;SDS011;34323;52.022;5.686;2023-04-24T02:30:03;8.43;;;5.10;;
48534;SDS011;34323;52.022;5.686;2023-04-24T02:32:29;9.88;;;6.10;;
48534;SDS011;34323;52.022;5.686;2023-04-24T02:34:55;9.27;;;6.45;;
48534;SDS011;34323;52.022;5.686;2023-04-24T02:37:21;10.88;;;5.55;;
48534;SDS011;34323;52.022;5.686;2023-04-24T02:39:46;8.60;;;6.63;;
48534;SDS011;34323;52.022;5.686;2023-04-24T02:42:12;11.57;;;6.15;;
48534;SDS011;34323;52.022;5.686;2023-04-24T02:44:37;9.82;;;6.80;;
48534;SDS011;34323;52.022;5.686;2023-04-24T02:47:03;10.68;;;7.20;;
48534;SDS011;34323;52.022;5.686;2023-04-24T02:49:29;11.70;;;8.02;;
48534;SDS011;34323;52.022;5.686;2023-04-24T02:51:54;14.85;;;9.05;;
48534;SDS011;34323;52.022;5.686;2023-04-24T02:54:20;14.90;;;9.40;;
48534;SDS011;34323;52.022;5.686;2023-04-24T02:56:45;16.80;;;9.80;;
48534;SDS011;34323;52.022;5.686;2023-04-24T02:59:11;15.77;;;10.40;;
48534;SDS011;34323;52.022;5.686;2023-04-24T03:01:36;15.45;;;9.80;;
48534;SDS011;34323;52.022;5.686;2023-04-24T03:04:02;17.88;;;10.52;;
48534;SDS011;34323;52.022;5.686;2023-04-24T03:06:27;15.45;;;10.05;;
48534;SDS011;34323;52.022;5.686;2023-04-24T03:08:53;15.02;;;10.13;;
48534;SDS011;34323;52.022;5.686;2023-04-24T03:11:19;15.98;;;9.23;;
48534;SDS011;34323;52.022;5.686;2023-04-24T03:13:45;14.50;;;8.10;;
48534;SDS011;34323;52.022;5.686;2023-04-24T03:16:10;12.77;;;8.65;;
48534;SDS011;34323;52.022;5.686;2023-04-24T03:18:36;10.93;;;7.90;;
48534;SDS011;34323;52.022;5.686;2023-04-24T03:21:01;15.60;;;7.88;;
48534;SDS011;34323;52.022;5.686;2023-04-24T03:23:28;14.35;;;7.43;;
48534;SDS011;34323;52.022;5.686;2023-04-24T03:25:53;13.38;;;7.72;;
48534;SDS011;34323;52.022;5.686;2023-04-24T03:28:20;12.50;;;7.68;;
48534;SDS011;34323;52.022;5.686;2023-04-24T03:30:45;17.30;;;8.60;;
48534;SDS011;34323;52.022;5.686;2023-04-24T03:33:11;13.95;;;8.55;;
48534;SDS011;34323;52.022;5.686;2023-04-24T03:35:37;13.68;;;8.95;;
48534;SDS011;34323;52.022;5.686;2023-04-24T03:38:02;13.50;;;9.38;;
48534;SDS011;34323;52.022;5.686;2023-04-24T03:40:29;15.77;;;10.43;;
48534;SDS011;34323;52.022;5.686;2023-04-24T03:42:55;20.58;;;11.65;;
48534;SDS011;34323;52.022;5.686;2023-04-24T03:45:21;21.92;;;12.15;;
48534;SDS011;34323;52.022;5.686;2023-04-24T03:47:46;20.23;;;12.80;;
48534;SDS011;34323;52.022;5.686;2023-04-24T03:50:12;23.83;;;14.32;;
48534;SDS011;34323;52.022;5.686;2023-04-24T03:52:37;21.33;;;13.77;;
48534;SDS011;34323;52.022;5.686;2023-04-24T03:55:03;23.48;;;14.77;;
48534;SDS011;34323;52.022;5.686;2023-04-24T03:57:29;30.42;;;16.80;;
48534;SDS011;34323;52.022;5.686;2023-04-24T03:59:54;22.15;;;15.77;;
48534;SDS011;34323;52.022;5.686;2023-04-24T04:02:20;25.95;;;16.92;;
48534;SDS011;34323;52.022;5.686;2023-04-24T04:04:46;33.75;;;18.20;;
48534;SDS011;34323;52.022;5.686;2023-04-24T04:07:11;32.88;;;20.50;;
48534;SDS011;34323;52.022;5.686;2023-04-24T04:09:37;31.38;;;20.65;;
48534;SDS011;34323;52.022;5.686;2023-04-24T04:12:03;33.95;;;20.98;;
48534;SDS011;34323;52.022;5.686;2023-04-24T04:14:29;34.33;;;21.08;;
48534;SDS011;34323;52.022;5.686;2023-04-24T04:16:54;43.25;;;24.40;;
48534;SDS011;34323;52.022;5.686;2023-04-24T04:19:20;43.45;;;24.10;;
48534;SDS011;34323;52.022;5.686;2023-04-24T04:21:46;44.95;;;25.83;;
48534;SDS011;34323;52.022;5.686;2023-04-24T04:24:15;43.17;;;25.40;;
48534;SDS011;34323;52.022;5.686;2023-04-24T04:26:41;48.90;;;27.30;;
48534;SDS011;34323;52.022;5.686;2023-04-24T04:29:11;46.60;;;25.60;;
48534;SDS011;34323;52.022;5.686;2023-04-24T04:31:37;42.28;;;25.50;;
48534;SDS011;34323;52.022;5.686;2023-04-24T04:34:02;40.47;;;24.95;;
48534;SDS011;34323;52.022;5.686;2023-04-24T04:36:28;45.58;;;26.05;;
48534;SDS011;34323;52.022;5.686;2023-04-24T04:38:54;42.85;;;26.48;;
48534;SDS011;34323;52.022;5.686;2023-04-24T04:41:21;39.92;;;22.30;;
48534;SDS011;34323;52.022;5.686;2023-04-24T04:43:47;36.35;;;21.35;;
48534;SDS011;34323;52.022;5.686;2023-04-24T04:46:13;39.53;;;23.08;;
48534;SDS011;34323;52.022;5.686;2023-04-24T04:48:38;35.95;;;22.98;;
48534;SDS011;34323;52.022;5.686;2023-04-24T04:51:04;34.78;;;21.80;;
48534;SDS011;34323;52.022;5.686;2023-04-24T04:53:30;37.92;;;23.33;;
48534;SDS011;34323;52.022;5.686;2023-04-24T04:55:56;33.55;;;21.48;;
48534;SDS011;34323;52.022;5.686;2023-04-24T04:58:21;30.10;;;19.48;;
48534;SDS011;34323;52.022;5.686;2023-04-24T05:00:47;32.03;;;18.17;;
48534;SDS011;34323;52.022;5.686;2023-04-24T05:03:13;26.38;;;16.38;;
48534;SDS011;34323;52.022;5.686;2023-04-24T05:05:39;26.50;;;15.60;;
48534;SDS011;34323;52.022;5.686;2023-04-24T05:08:06;26.58;;;15.05;;
48534;SDS011;34323;52.022;5.686;2023-04-24T05:10:32;21.98;;;13.60;;
48534;SDS011;34323;52.022;5.686;2023-04-24T05:12:58;19.27;;;12.98;;
48534;SDS011;34323;52.022;5.686;2023-04-24T05:15:23;27.25;;;15.50;;
48534;SDS011;34323;52.022;5.686;2023-04-24T05:17:49;18.13;;;12.50;;
48534;SDS011;34323;52.022;5.686;2023-04-24T05:20:14;21.92;;;13.13;;
48534;SDS011;34323;52.022;5.686;2023-04-24T05:22:40;19.13;;;11.85;;
48534;SDS011;34323;52.022;5.686;2023-04-24T05:25:06;16.77;;;10.52;;
48534;SDS011;34323;52.022;5.686;2023-04-24T05:27:31;19.42;;;10.73;;
48534;SDS011;34323;52.022;5.686;2023-04-24T05:29:57;13.38;;;9.40;;
48534;SDS011;34323;52.022;5.686;2023-04-24T05:32:22;14.55;;;9.52;;
48534;SDS011;34323;52.022;5.686;2023-04-24T05:34:48;16.05;;;9.45;;
48534;SDS011;34323;52.022;5.686;2023-04-24T05:37:13;11.77;;;7.95;;
48534;SDS011;34323;52.022;5.686;2023-04-24T05:39:39;12.80;;;7.95;;
48534;SDS011;34323;52.022;5.686;2023-04-24T05:42:06;16.52;;;7.72;;
48534;SDS011;34323;52.022;5.686;2023-04-24T05:44:32;9.55;;;6.32;;
48534;SDS011;34323;52.022;5.686;2023-04-24T05:46:57;10.88;;;5.57;;
48534;SDS011;34323;52.022;5.686;2023-04-24T05:49:23;6.97;;;4.70;;
48534;SDS011;34323;52.022;5.686;2023-04-24T05:51:49;7.60;;;4.50;;
48534;SDS011;34323;52.022;5.686;2023-04-24T05:54:14;5.97;;;4.53;;
48534;SDS011;34323;52.022;5.686;2023-04-24T05:56:40;9.80;;;4.35;;
48534;SDS011;34323;52.022;5.686;2023-04-24T05:59:05;7.47;;;4.00;;
48534;SDS011;34323;52.022;5.686;2023-04-24T06:01:32;6.50;;;4.05;;
48534;SDS011;34323;52.022;5.686;2023-04-24T06:03:58;6.07;;;4.43;;
48534;SDS011;34323;52.022;5.686;2023-04-24T06:06:23;5.47;;;3.88;;
48534;SDS011;34323;52.022;5.686;2023-04-24T06:08:49;7.40;;;4.47;;
48534;SDS011;34323;52.022;5.686;2023-04-24T06:11:15;6.57;;;4.95;;
48534;SDS011;34323;52.022;5.686;2023-04-24T06:13:40;6.88;;;5.45;;
48534;SDS011;34323;52.022;5.686;2023-04-24T06:16:06;6.43;;;4.97;;
48534;SDS011;34323;52.022;5.686;2023-04-24T06:18:32;7.53;;;5.30;;
48534;SDS011;34323;52.022;5.686;2023-04-24T06:20:57;6.82;;;5.45;;
48534;SDS011;34323;52.022;5.686;2023-04-24T06:23:23;6.30;;;4.20;;
48534;SDS011;34323;52.022;5.686;2023-04-24T06:25:48;5.30;;;3.53;;
48534;SDS011;34323;52.022;5.686;2023-04-24T06:28:14;5.72;;;3.33;;
48534;SDS011;34323;52.022;5.686;2023-04-24T06:30:40;5.47;;;2.97;;
48534;SDS011;34323;52.022;5.686;2023-04-24T06:33:06;7.30;;;3.60;;
48534;SDS011;34323;52.022;5.686;2023-04-24T06:35:31;5.13;;;2.90;;
48534;SDS011;34323;52.022;5.686;2023-04-24T06:37:57;5.00;;;2.60;;
48534;SDS011;34323;52.022;5.686;2023-04-24T06:40:22;4.45;;;3.38;;
48534;SDS011;34323;52.022;5.686;2023-04-24T06:42:48;6.78;;;2.53;;
48534;SDS011;34323;52.022;5.686;2023-04-24T06:45:13;4.55;;;2.70;;
48534;SDS011;34323;52.022;5.686;2023-04-24T06:47:39;3.97;;;2.80;;
48534;SDS011;34323;52.022;5.686;2023-04-24T06:50:05;7.00;;;2.72;;
48534;SDS011;34323;52.022;5.686;2023-04-24T06:52:31;5.53;;;3.40;;
48534;SDS011;34323;52.022;5.686;2023-04-24T06:55:01;5.38;;;3.00;;
48534;SDS011;34323;52.022;5.686;2023-04-24T06:57:27;6.50;;;3.45;;
48534;SDS011;34323;52.022;5.686;2023-04-24T06:59:53;4.72;;;3.20;;
48534;SDS011;34323;52.022;5.686;2023-04-24T07:02:19;5.95;;;3.45;;
48534;SDS011;34323;52.022;5.686;2023-04-24T07:04:44;4.30;;;3.00;;
48534;SDS011;34323;52.022;5.686;2023-04-24T07:07:12;4.68;;;3.28;;
48534;SDS011;34323;52.022;5.686;2023-04-24T07:09:39;4.93;;;3.08;;
48534;SDS011;34323;52.022;5.686;2023-04-24T07:12:07;4.78;;;2.50;;
48534;SDS011;34323;52.022;5.686;2023-04-24T07:14:33;3.95;;;2.53;;
48534;SDS011;34323;52.022;5.686;2023-04-24T07:16:59;3.03;;;2.13;;
48534;SDS011;34323;52.022;5.686;2023-04-24T07:19:24;5.00;;;2.58;;
48534;SDS011;34323;52.022;5.686;2023-04-24T07:21:50;5.30;;;3.35;;
48534;SDS011;34323;52.022;5.686;2023-04-24T07:24:15;8.65;;;4.38;;
48534;SDS011;34323;52.022;5.686;2023-04-24T07:26:41;7.07;;;4.72;;
48534;SDS011;34323;52.022;5.686;2023-04-24T07:29:07;6.43;;;4.82;;
48534;SDS011;34323;52.022;5.686;2023-04-24T07:31:33;9.60;;;5.72;;
48534;SDS011;34323;52.022;5.686;2023-04-24T07:33:58;9.80;;;6.25;;
48534;SDS011;34323;52.022;5.686;2023-04-24T07:36:24;13.57;;;6.50;;
48534;SDS011;34323;52.022;5.686;2023-04-24T07:38:50;11.00;;;6.55;;
48534;SDS011;34323;52.022;5.686;2023-04-24T07:41:16;12.75;;;7.28;;
48534;SDS011;34323;52.022;5.686;2023-04-24T07:43:42;12.38;;;7.97;;
48534;SDS011;34323;52.022;5.686;2023-04-24T07:46:08;15.52;;;8.90;;
48534;SDS011;34323;52.022;5.686;2023-04-24T07:48:34;17.88;;;8.73;;
48534;SDS011;34323;52.022;5.686;2023-04-24T07:50:59;13.55;;;8.82;;
48534;SDS011;34323;52.022;5.686;2023-04-24T07:53:25;15.90;;;8.25;;
48534;SDS011;34323;52.022;5.686;2023-04-24T07:55:51;14.40;;;8.75;;
48534;SDS011;34323;52.022;5.686;2023-04-24T07:58:16;16.38;;;8.02;;
48534;SDS011;34323;52.022;5.686;2023-04-24T08:00:42;13.60;;;7.50;;
48534;SDS011;34323;52.022;5.686;2023-04-24T08:03:07;10.80;;;7.97;;
48534;SDS011;34323;52.022;5.686;2023-04-24T08:05:33;14.60;;;8.00;;
48534;SDS011;34323;52.022;5.686;2023-04-24T08:07:58;16.17;;;8.27;;
48534;SDS011;34323;52.022;5.686;2023-04-24T08:10:24;17.17;;;8.75;;
48534;SDS011;34323;52.022;5.686;2023-04-24T08:12:50;20.20;;;8.23;;
48534;SDS011;34323;52.022;5.686;2023-04-24T08:15:16;16.05;;;8.70;;
48534;SDS011;34323;52.022;5.686;2023-04-24T08:17:42;21.38;;;8.55;;
48534;SDS011;34323;52.022;5.686;2023-04-24T08:20:08;13.88;;;8.00;;
48534;SDS011;34323;52.022;5.686;2023-04-24T08:22:38;17.20;;;8.95;;
48534;SDS011;34323;52.022;5.686;2023-04-24T08:25:08;13.43;;;8.40;;
48534;SDS011;34323;52.022;5.686;2023-04-24T08:27:35;24.67;;;9.25;;
48534;SDS011;34323;52.022;5.686;2023-04-24T08:30:01;12.57;;;8.18;;
48534;SDS011;34323;52.022;5.686;2023-04-24T08:32:28;14.45;;;8.65;;
48534;SDS011;34323;52.022;5.686;2023-04-24T08:34:54;13.70;;;8.27;;
48534;SDS011;34323;52.022;5.686;2023-04-24T08:37:22;18.15;;;8.52;;
48534;SDS011;34323;52.022;5.686;2023-04-24T08:39:51;15.48;;;8.32;;
48534;SDS011;34323;52.022;5.686;2023-04-24T08:42:17;17.20;;;7.90;;
48534;SDS011;34323;52.022;5.686;2023-04-24T08:44:44;17.10;;;7.97;;
48534;SDS011;34323;52.022;5.686;2023-04-24T08:47:11;15.70;;;6.35;;
48534;SDS011;34323;52.022;5.686;2023-04-24T08:49:37;15.00;;;5.00;;
48534;SDS011;34323;52.022;5.686;2023-04-24T08:52:07;9.77;;;4.43;;
48534;SDS011;34323;52.022;5.686;2023-04-24T08:54:36;9.75;;;4.53;;
48534;SDS011;34323;52.022;5.686;2023-04-24T08:57:02;11.18;;;3.80;;
48534;SDS011;34323;52.022;5.686;2023-04-24T08:59:31;15.82;;;4.63;;
48534;SDS011;34323;52.022;5.686;2023-04-24T09:01:56;12.77;;;4.10;;
48534;SDS011;34323;52.022;5.686;2023-04-24T09:04:23;11.32;;;3.92;;
48534;SDS011;34323;52.022;5.686;2023-04-24T09:06:50;15.07;;;3.95;;
48534;SDS011;34323;52.022;5.686;2023-04-24T09:09:17;11.88;;;3.50;;
48534;SDS011;34323;52.022;5.686;2023-04-24T09:11:43;17.38;;;4.05;;
48534;SDS011;34323;52.022;5.686;2023-04-24T09:14:09;16.83;;;4.38;;
48534;SDS011;34323;52.022;5.686;2023-04-24T09:16:35;15.68;;;3.92;;
48534;SDS011;34323;52.022;5.686;2023-04-24T09:19:01;20.83;;;4.30;;
48534;SDS011;34323;52.022;5.686;2023-04-24T09:21:31;17.17;;;3.70;;
48534;SDS011;34323;52.022;5.686;2023-04-24T09:24:02;16.02;;;3.70;;
48534;SDS011;34323;52.022;5.686;2023-04-24T09:26:34;21.40;;;3.20;;
48534;SDS011;34323;52.022;5.686;2023-04-24T09:29:01;10.18;;;2.90;;
48534;SDS011;34323;52.022;5.686;2023-04-24T09:31:28;7.43;;;2.85;;
48534;SDS011;34323;52.022;5.686;2023-04-24T09:33:55;15.63;;;3.25;;
48534;SDS011;34323;52.022;5.686;2023-04-24T09:36:30;11.38;;;3.08;;
48534;SDS011;34323;52.022;5.686;2023-04-24T09:38:58;8.00;;;3.00;;
48534;SDS011;34323;52.022;5.686;2023-04-24T09:41:26;11.32;;;3.38;;
48534;SDS011;34323;52.022;5.686;2023-04-24T09:43:56;6.95;;;2.40;;
48534;SDS011;34323;52.022;5.686;2023-04-24T09:46:29;10.52;;;3.10;;
48534;SDS011;34323;52.022;5.686;2023-04-24T09:48:56;9.82;;;2.35;;
48534;SDS011;34323;52.022;5.686;2023-04-24T09:51:55;15.75;;;3.17;;
48534;SDS011;34323;52.022;5.686;2023-04-24T09:54:20;10.25;;;2.70;;
48534;SDS011;34323;52.022;5.686;2023-04-24T09:56:47;7.72;;;2.83;;
48534;SDS011;34323;52.022;5.686;2023-04-24T09:59:17;8.63;;;2.42;;
48534;SDS011;34323;52.022;5.686;2023-04-24T10:01:44;9.40;;;3.00;;
48534;SDS011;34323;52.022;5.686;2023-04-24T10:04:20;12.82;;;2.67;;
48534;SDS011;34323;52.022;5.686;2023-04-24T10:06:48;10.05;;;3.05;;
48534;SDS011;34323;52.022;5.686;2023-04-24T10:09:15;7.07;;;2.05;;
48534;SDS011;34323;52.022;5.686;2023-04-24T10:11:45;21.33;;;3.72;;
48534;SDS011;34323;52.022;5.686;2023-04-24T10:14:15;13.20;;;2.72;;
48534;SDS011;34323;52.022;5.686;2023-04-24T10:16:42;14.55;;;2.75;;
48534;SDS011;34323;52.022;5.686;2023-04-24T10:19:08;7.93;;;2.50;;
48534;SDS011;34323;52.022;5.686;2023-04-24T10:21:35;9.50;;;2.92;;
48534;SDS011;34323;52.022;5.686;2023-04-24T10:24:07;9.70;;;2.60;;
48534;SDS011;34323;52.022;5.686;2023-04-24T10:26:36;12.93;;;2.22;;
48534;SDS011;34323;52.022;5.686;2023-04-24T10:29:03;10.85;;;2.28;;
48534;SDS011;34323;52.022;5.686;2023-04-24T10:31:31;5.80;;;2.53;;
48534;SDS011;34323;52.022;5.686;2023-04-24T10:33:58;5.28;;;1.88;;
48534;SDS011;34323;52.022;5.686;2023-04-24T10:36:25;5.68;;;2.05;;
48534;SDS011;34323;52.022;5.686;2023-04-24T10:38:53;8.30;;;1.88;;
48534;SDS011;34323;52.022;5.686;2023-04-24T10:41:21;10.75;;;2.28;;
48534;SDS011;34323;52.022;5.686;2023-04-24T10:44:06;7.97;;;1.60;;
48534;SDS011;34323;52.022;5.686;2023-04-24T10:46:32;6.43;;;1.83;;
48534;SDS011;34323;52.022;5.686;2023-04-24T10:48:58;3.97;;;1.70;;
48534;SDS011;34323;52.022;5.686;2023-04-24T10:51:24;4.45;;;1.52;;
48534;SDS011;34323;52.022;5.686;2023-04-24T10:54:26;7.32;;;1.60;;
48534;SDS011;34323;52.022;5.686;2023-04-24T11:00:13;8.48;;;1.60;;
48534;SDS011;34323;52.022;5.686;2023-04-24T11:02:45;3.08;;;1.33;;
48534;SDS011;34323;52.022;5.686;2023-04-24T11:05:17;7.85;;;1.80;;
48534;SDS011;34323;52.022;5.686;2023-04-24T11:11:03;3.97;;;1.40;;
48534;SDS011;34323;52.022;5.686;2023-04-24T11:13:26;2.28;;;1.05;;
48534;SDS011;34323;52.022;5.686;2023-04-24T11:27:14;3.42;;;0.80;;
48534;SDS011;34323;52.022;5.686;2023-04-24T11:34:54;4.57;;;0.73;;
48534;SDS011;34323;52.022;5.686;2023-04-24T11:37:29;5.68;;;1.27;;
48534;SDS011;34323;52.022;5.686;2023-04-24T11:40:06;2.13;;;0.70;;
48534;SDS011;34323;52.022;5.686;2023-04-24T11:42:36;3.13;;;1.23;;
48534;SDS011;34323;52.022;5.686;2023-04-24T11:45:22;2.38;;;0.60;;
48534;SDS011;34323;52.022;5.686;2023-04-24T11:47:50;4.80;;;1.08;;
48534;SDS011;34323;52.022;5.686;2023-04-24T11:50:16;3.28;;;0.80;;
48534;SDS011;34323;52.022;5.686;2023-04-24T11:52:44;1.42;;;0.80;;
48534;SDS011;34323;52.022;5.686;2023-04-24T11:57:43;3.92;;;1.00;;
48534;SDS011;34323;52.022;5.686;2023-04-24T12:00:22;4.80;;;1.25;;
48534;SDS011;34323;52.022;5.686;2023-04-24T12:03:02;4.53;;;2.22;;
48534;SDS011;34323;52.022;5.686;2023-04-24T12:05:32;4.15;;;1.02;;
48534;SDS011;34323;52.022;5.686;2023-04-24T12:07:59;3.88;;;1.02;;
48534;SDS011;34323;52.022;5.686;2023-04-24T12:10:26;2.55;;;0.75;;
48534;SDS011;34323;52.022;5.686;2023-04-24T12:12:53;5.43;;;1.13;;
48534;SDS011;34323;52.022;5.686;2023-04-24T12:15:20;6.45;;;1.33;;
48534;SDS011;34323;52.022;5.686;2023-04-24T12:17:46;2.83;;;1.10;;
48534;SDS011;34323;52.022;5.686;2023-04-24T12:20:13;4.55;;;0.80;;
48534;SDS011;34323;52.022;5.686;2023-04-24T12:22:50;5.13;;;0.88;;
48534;SDS011;34323;52.022;5.686;2023-04-24T12:25:19;2.67;;;0.80;;
48534;SDS011;34323;52.022;5.686;2023-04-24T12:27:46;6.03;;;0.73;;
48534;SDS011;34323;52.022;5.686;2023-04-24T12:30:17;5.68;;;0.70;;
48534;SDS011;34323;52.022;5.686;2023-04-24T12:32:43;5.13;;;0.75;;
48534;SDS011;34323;52.022;5.686;2023-04-24T12:35:11;2.50;;;0.63;;
48534;SDS011;34323;52.022;5.686;2023-04-24T12:37:36;2.05;;;0.63;;
48534;SDS011;34323;52.022;5.686;2023-04-24T12:40:05;3.50;;;0.70;;
48534;SDS011;34323;52.022;5.686;2023-04-24T12:42:33;2.88;;;0.57;;
48534;SDS011;34323;52.022;5.686;2023-04-24T12:45:00;4.55;;;0.75;;
48534;SDS011;34323;52.022;5.686;2023-04-24T12:47:32;4.20;;;0.60;;
48534;SDS011;34323;52.022;5.686;2023-04-24T12:49:59;6.93;;;1.88;;
48534;SDS011;34323;52.022;5.686;2023-04-24T12:52:26;2.22;;;0.90;;
48534;SDS011;34323;52.022;5.686;2023-04-24T12:54:53;7.78;;;0.80;;
48534;SDS011;34323;52.022;5.686;2023-04-24T12:57:21;4.43;;;1.02;;
48534;SDS011;34323;52.022;5.686;2023-04-24T12:59:47;2.97;;;0.90;;
48534;SDS011;34323;52.022;5.686;2023-04-24T13:02:13;3.75;;;0.73;;
48534;SDS011;34323;52.022;5.686;2023-04-24T13:04:39;6.88;;;0.85;;
48534;SDS011;34323;52.022;5.686;2023-04-24T13:07:05;2.70;;;0.75;;
48534;SDS011;34323;52.022;5.686;2023-04-24T13:09:30;2.50;;;1.10;;
48534;SDS011;34323;52.022;5.686;2023-04-24T13:11:56;8.10;;;1.05;;
48534;SDS011;34323;52.022;5.686;2023-04-24T13:14:22;5.10;;;1.20;;
48534;SDS011;34323;52.022;5.686;2023-04-24T13:16:48;6.15;;;1.02;;
48534;SDS011;34323;52.022;5.686;2023-04-24T13:19:14;4.88;;;1.23;;
48534;SDS011;34323;52.022;5.686;2023-04-24T13:21:40;6.20;;;1.30;;
48534;SDS011;34323;52.022;5.686;2023-04-24T13:24:05;8.43;;;1.17;;
48534;SDS011;34323;52.022;5.686;2023-04-24T13:26:32;8.35;;;1.30;;
48534;SDS011;34323;52.022;5.686;2023-04-24T13:28:58;7.68;;;1.80;;
48534;SDS011;34323;52.022;5.686;2023-04-24T13:31:24;6.22;;;1.63;;
48534;SDS011;34323;52.022;5.686;2023-04-24T13:33:49;6.93;;;1.42;;
48534;SDS011;34323;52.022;5.686;2023-04-24T13:36:15;6.35;;;0.98;;
48534;SDS011;34323;52.022;5.686;2023-04-24T13:38:42;7.53;;;1.42;;
48534;SDS011;34323;52.022;5.686;2023-04-24T13:41:09;11.98;;;1.58;;
48534;SDS011;34323;52.022;5.686;2023-04-24T13:43:35;5.45;;;1.35;;
48534;SDS011;34323;52.022;5.686;2023-04-24T13:46:01;5.38;;;1.35;;
48534;SDS011;34323;52.022;5.686;2023-04-24T13:48:28;9.77;;;1.42;;
48534;SDS011;34323;52.022;5.686;2023-04-24T13:50:54;11.85;;;1.98;;
48534;SDS011;34323;52.022;5.686;2023-04-24T13:53:20;8.38;;;1.65;;
48534;SDS011;34323;52.022;5.686;2023-04-24T13:55:46;6.45;;;1.80;;
48534;SDS011;34323;52.022;5.686;2023-04-24T13:58:11;10.60;;;1.67;;
48534;SDS011;34323;52.022;5.686;2023-04-24T14:00:37;9.18;;;2.03;;
48534;SDS011;34323;52.022;5.686;2023-04-24T14:03:03;8.52;;;1.80;;
48534;SDS011;34323;52.022;5.686;2023-04-24T14:05:28;8.32;;;2.45;;
48534;SDS011;34323;52.022;5.686;2023-04-24T14:07:54;9.05;;;2.20;;
48534;SDS011;34323;52.022;5.686;2023-04-24T14:10:20;9.15;;;2.00;;
48534;SDS011;34323;52.022;5.686;2023-04-24T14:12:45;10.85;;;2.20;;
48534;SDS011;34323;52.022;5.686;2023-04-24T14:15:11;7.63;;;1.92;;
48534;SDS011;34323;52.022;5.686;2023-04-24T14:17:38;10.05;;;2.13;;
48534;SDS011;34323;52.022;5.686;2023-04-24T14:20:04;7.50;;;1.85;;
48534;SDS011;34323;52.022;5.686;2023-04-24T14:22:30;11.70;;;1.90;;
48534;SDS011;34323;52.022;5.686;2023-04-24T14:24:55;8.98;;;2.38;;
48534;SDS011;34323;52.022;5.686;2023-04-24T14:27:21;10.82;;;2.25;;
48534;SDS011;34323;52.022;5.686;2023-04-24T14:29:46;12.35;;;2.55;;
48534;SDS011;34323;52.022;5.686;2023-04-24T14:32:12;10.75;;;2.45;;
48534;SDS011;34323;52.022;5.686;2023-04-24T14:34:40;11.70;;;1.90;;
48534;SDS011;34323;52.022;5.686;2023-04-24T14:37:05;9.70;;;1.90;;
48534;SDS011;34323;52.022;5.686;2023-04-24T14:39:31;7.75;;;1.52;;
48534;SDS011;34323;52.022;5.686;2023-04-24T14:41:56;7.95;;;2.20;;
48534;SDS011;34323;52.022;5.686;2023-04-24T14:44:22;11.98;;;2.35;;
48534;SDS011;34323;52.022;5.686;2023-04-24T14:46:48;5.53;;;2.05;;
48534;SDS011;34323;52.022;5.686;2023-04-24T14:49:14;4.68;;;1.77;;
48534;SDS011;34323;52.022;5.686;2023-04-24T14:51:39;7.05;;;2.30;;
48534;SDS011;34323;52.022;5.686;2023-04-24T14:54:06;9.52;;;2.08;;
48534;SDS011;34323;52.022;5.686;2023-04-24T14:56:32;10.65;;;2.50;;
48534;SDS011;34323;52.022;5.686;2023-04-24T14:58:57;13.45;;;2.38;;
48534;SDS011;34323;52.022;5.686;2023-04-24T15:01:23;16.70;;;2.72;;
48534;SDS011;34323;52.022;5.686;2023-04-24T15:03:49;7.55;;;2.47;;